Terminal Aerodrome Forecast
Issued by NWS

Home | Current Version | Previous Version | Text Only | Print | Product List | Glossary Off
Versions: 1 2 3 4 5 6 7 8 9 10 11 12 13 14 15 16 17 18 19 20 21

000
FTUS43 KABR 260524
TAFATY
TAF
KATY 260524Z 2606/2706 VRB03KT P6SM SKC
     FM261500 20007KT P6SM BKN250
     FM270100 VRB05KT P6SM VCSH OVC090=

USA.gov is the U.S. government's official web portal to all federal, state and local government web resources and services.